Time;durP1;ratioP1;P1;durP2;ratioP2;P2;SDS_P1;SDS_P2;PMS_P1;PMS_P2;Temp;Humidity;BMP_temperature;BMP_pressure;BME280_temperature;BME280_humidity;BME280_pressure;Samples;Min_cycle;Max_cycle;Signal;HPM_P1;HPM_P2
2021/08/27 00:00:45;;;;;;;20.58;18.40;;;19.70;91.70;;;;;;4992907;28;20389;-75
2021/08/27 00:03:11;;;;;;;19.40;17.40;;;19.70;91.80;;;;;;4993305;28;20045;-75
2021/08/27 00:05:37;;;;;;;20.33;16.70;;;19.80;91.90;;;;;;4975546;28;20041;-77
2021/08/27 00:08:02;;;;;;;18.52;16.55;;;19.70;91.90;;;;;;4992965;28;20026;-75
2021/08/27 00:10:28;;;;;;;18.92;16.73;;;19.70;91.90;;;;;;4992812;28;20408;-75
2021/08/27 00:12:54;;;;;;;18.85;16.75;;;19.70;91.90;;;;;;4992937;28;20038;-75
2021/08/27 00:15:20;;;;;;;19.17;17.15;;;19.70;91.80;;;;;;4992910;28;20019;-75
2021/08/27 00:17:46;;;;;;;18.38;16.52;;;19.70;91.80;;;;;;4992759;28;20468;-75
2021/08/27 00:20:12;;;;;;;21.27;16.95;;;19.70;91.90;;;;;;4992763;28;20026;-76
2021/08/27 00:22:38;;;;;;;17.45;15.68;;;19.70;91.90;;;;;;4992907;28;20158;-76
2021/08/27 00:25:05;;;;;;;17.90;16.20;;;19.60;91.90;;;;;;4992747;28;20030;-76
2021/08/27 00:27:31;;;;;;;18.50;16.08;;;19.60;91.90;;;;;;4992716;28;20023;-76
2021/08/27 00:29:57;;;;;;;17.25;15.45;;;19.60;91.90;;;;;;4992528;28;20026;-76
2021/08/27 00:32:22;;;;;;;18.17;16.27;;;19.70;92.20;;;;;;4992625;28;20109;-76
2021/08/27 00:34:48;;;;;;;18.55;16.67;;;19.60;91.90;;;;;;4992668;28;20101;-76
2021/08/27 00:37:14;;;;;;;19.83;17.05;;;19.60;92.10;;;;;;4992681;28;20058;-76
2021/08/27 00:39:40;;;;;;;17.48;15.68;;;19.60;92.20;;;;;;4992504;28;20085;-76
2021/08/27 00:42:06;;;;;;;20.33;15.70;;;19.60;92.30;;;;;;4992409;28;20061;-77
2021/08/27 00:44:31;;;;;;;17.90;15.07;;;19.60;92.10;;;;;;4975062;28;20543;-76
2021/08/27 00:46:58;;;;;;;20.90;15.95;;;19.60;92.10;;;;;;4992463;28;20450;-76
2021/08/27 00:49:23;;;;;;;18.02;15.50;;;19.60;92.10;;;;;;4992402;28;20089;-77
2021/08/27 00:51:50;;;;;;;18.17;15.43;;;19.60;92.10;;;;;;4992712;28;20026;-77
2021/08/27 00:54:16;;;;;;;17.10;15.32;;;19.60;91.90;;;;;;4992743;28;20109;-76
2021/08/27 00:56:41;;;;;;;16.75;15.15;;;19.60;91.90;;;;;;4992494;28;20106;-76
2021/08/27 00:59:09;;;;;;;17.50;15.70;;;19.60;92.00;;;;;;4992554;28;20101;-77
2021/08/27 01:01:35;;;;;;;16.95;14.38;;;19.50;92.00;;;;;;4992294;28;20031;-76
2021/08/27 01:04:01;;;;;;;17.38;15.40;;;19.50;92.00;;;;;;4992293;28;20034;-76
2021/08/27 01:06:35;;;;;;;32.30;27.35;;;19.50;92.00;;;;;;4974485;28;20022;-76
2021/08/27 01:09:09;;;;;;;20.65;18.02;;;19.50;92.10;;;;;;4992335;28;20058;-76
2021/08/27 01:11:44;;;;;;;21.65;17.25;;;19.50;92.10;;;;;;4974884;28;20030;-76
2021/08/27 01:14:16;;;;;;;20.10;15.48;;;19.50;92.10;;;;;;4975049;28;20054;-76
2021/08/27 01:16:48;;;;;;;;;;;19.50;92.10;;;;;;4975313;28;20381;-76
2021/08/27 01:19:26;;;;;;;15.70;14.02;;;19.50;91.90;;;;;;4992307;28;19917;-76
2021/08/27 01:22:25;;;;;;;16.65;13.73;;;19.50;91.90;;;;;;4992155;28;20031;-76
2021/08/27 01:24:52;;;;;;;15.88;14.20;;;19.50;91.80;;;;;;4992128;28;20027;-76
2021/08/27 01:27:20;;;;;;;15.82;13.85;;;19.50;91.70;;;;;;4992188;28;20449;-75
2021/08/27 01:30:04;;;;;;;17.20;15.18;;;19.50;91.80;;;;;;4974551;28;20030;-75
2021/08/27 01:32:53;;;;;;;16.48;14.68;;;19.50;91.80;;;;;;4992002;28;20089;-75
2021/08/27 01:35:19;;;;;;;15.23;13.65;;;19.50;91.70;;;;;;4992168;28;20175;-75
2021/08/27 01:37:50;;;;;;;16.40;14.30;;;19.40;91.60;;;;;;4991919;28;20027;-75
2021/08/27 01:40:26;;;;;;;16.83;15.00;;;19.40;91.60;;;;;;4992808;28;20121;-75
2021/08/27 01:42:52;;;;;;;17.23;15.52;;;19.40;91.60;;;;;;4995645;28;20129;-75
2021/08/27 01:45:19;;;;;;;16.65;14.93;;;19.40;91.70;;;;;;4995458;28;20038;-75
2021/08/27 01:47:45;;;;;;;18.27;15.20;;;19.40;91.80;;;;;;4995559;28;20551;-75
2021/08/27 01:50:13;;;;;;;17.23;15.00;;;19.40;91.90;;;;;;4995617;28;20030;-76
2021/08/27 01:52:40;;;;;;;16.58;14.88;;;19.40;91.90;;;;;;4978005;28;20030;-76
2021/08/27 01:55:08;;;;;;;17.48;14.85;;;19.40;91.80;;;;;;4978062;28;20399;-76
2021/08/27 01:57:35;;;;;;;20.02;16.88;;;19.40;91.80;;;;;;4977997;28;20489;-76
2021/08/27 02:00:03;;;;;;;21.65;19.17;;;19.40;91.80;;;;;;4995388;28;20019;-76
2021/08/27 02:02:31;;;;;;;18.08;16.25;;;19.40;92.00;;;;;;4995046;28;20034;-76
2021/08/27 02:05:00;;;;;;;15.60;14.00;;;19.30;92.10;;;;;;4995463;28;20038;-76
2021/08/27 02:07:26;;;;;;;15.65;14.00;;;19.40;92.10;;;;;;4995596;28;20132;-76
2021/08/27 02:09:55;;;;;;;21.80;14.43;;;19.40;92.10;;;;;;4995462;28;20801;-76
2021/08/27 02:12:22;;;;;;;15.35;13.25;;;19.40;92.10;;;;;;4995066;28;20380;-76
2021/08/27 02:14:50;;;;;;;14.68;13.07;;;19.30;92.00;;;;;;4995137;28;20022;-76
2021/08/27 02:17:16;;;;;;;16.58;13.75;;;19.30;92.10;;;;;;4995097;28;20436;-76
2021/08/27 02:19:43;;;;;;;15.18;13.35;;;19.30;92.20;;;;;;4995147;28;20050;-77
2021/08/27 02:22:12;;;;;;;16.20;14.00;;;19.30;92.10;;;;;;4995155;28;20100;-77
2021/08/27 02:24:48;;;;;;;16.50;13.43;;;19.30;92.10;;;;;;4995021;28;20068;-77
2021/08/27 02:27:14;;;;;;;14.60;13.07;;;19.30;92.20;;;;;;4977577;28;20037;-77
2021/08/27 02:29:43;;;;;;;17.63;13.90;;;19.30;92.20;;;;;;4994958;28;20077;-77
2021/08/27 02:32:11;;;;;;;20.98;13.73;;;19.30;92.30;;;;;;4994831;28;20030;-76
2021/08/27 02:34:42;;;;;;;15.10;13.43;;;19.30;92.10;;;;;;4994702;28;20030;-76
2021/08/27 02:37:09;;;;;;;16.67;13.38;;;19.30;92.20;;;;;;4994893;28;20178;-76
2021/08/27 02:39:35;;;;;;;15.68;13.68;;;19.30;92.20;;;;;;4994713;28;20080;-76
2021/08/27 02:42:02;;;;;;;17.27;15.18;;;19.30;92.10;;;;;;4994630;28;20137;-76
2021/08/27 02:44:28;;;;;;;16.95;15.15;;;19.30;92.20;;;;;;4994664;28;20034;-76
2021/08/27 02:46:54;;;;;;;17.35;15.45;;;19.30;92.10;;;;;;4994662;28;20027;-77
2021/08/27 02:49:20;;;;;;;17.38;14.43;;;19.30;92.10;;;;;;4994638;28;20058;-77
2021/08/27 02:51:52;;;;;;;19.05;16.27;;;19.30;92.00;;;;;;4994615;28;20125;-76
2021/08/27 02:54:21;;;;;;;20.52;17.23;;;19.30;92.10;;;;;;4994547;28;20022;-77
2021/08/27 02:56:49;;;;;;;19.83;16.27;;;19.20;92.10;;;;;;4994772;28;20029;-77
2021/08/27 02:59:18;;;;;;;22.45;18.48;;;19.30;92.10;;;;;;4994307;28;20465;-77
2021/08/27 03:01:51;;;;;;;29.45;24.02;;;19.20;92.00;;;;;;4994282;28;20060;-77
2021/08/27 03:04:25;;;;;;;24.35;18.20;;;19.30;92.00;;;;;;4993994;28;20033;-77
2021/08/27 03:07:05;;;;;;;24.92;18.95;;;19.20;91.90;;;;;;4993922;28;20457;-77
2021/08/27 03:09:38;;;;;;;26.52;20.38;;;19.30;91.90;;;;;;4993963;28;20030;-77
2021/08/27 03:12:06;;;;;;;24.52;19.85;;;19.30;91.90;;;;;;4976486;28;20034;-77
2021/08/27 03:14:39;;;;;;;27.42;21.33;;;19.20;91.90;;;;;;4993635;28;20037;-76
2021/08/27 03:17:11;;;;;;;28.35;21.17;;;19.20;91.80;;;;;;4976368;28;20026;-77
2021/08/27 03:19:44;;;;;;;33.97;22.67;;;19.20;91.80;;;;;;4993936;28;20048;-77
2021/08/27 03:22:20;;;;;;;31.10;21.85;;;19.20;91.80;;;;;;4993671;28;20026;-77
2021/08/27 03:24:54;;;;;;;34.97;22.58;;;19.20;91.70;;;;;;4994260;28;20026;-77
2021/08/27 03:27:27;;;;;;;33.67;22.33;;;19.20;91.80;;;;;;4993725;28;20022;-77
2021/08/27 03:30:01;;;;;;;34.95;22.50;;;19.20;92.00;;;;;;4993940;28;20030;-77
2021/08/27 03:32:28;;;;;;;36.92;21.48;;;19.20;91.80;;;;;;4976239;28;20029;-77
2021/08/27 03:34:54;;;;;;;32.28;21.88;;;19.20;91.80;;;;;;4976125;28;20579;-76
2021/08/27 03:37:21;;;;;;;36.95;24.02;;;19.20;91.70;;;;;;4993232;28;20018;-77
2021/08/27 03:39:48;;;;;;;35.60;24.20;;;19.20;91.80;;;;;;4993031;28;20469;-75
2021/08/27 03:42:16;;;;;;;35.78;21.92;;;19.20;91.90;;;;;;4975660;28;20058;-75
2021/08/27 03:44:43;;;;;;;32.85;22.77;;;19.20;91.80;;;;;;4993239;28;20022;-76
2021/08/27 03:47:13;;;;;;;30.23;22.17;;;19.20;91.80;;;;;;4992991;28;20026;-76
2021/08/27 03:49:40;;;;;;;33.55;23.48;;;19.20;91.80;;;;;;4992879;28;20022;-75
2021/08/27 03:52:06;;;;;;;35.28;24.05;;;19.20;91.80;;;;;;4992948;28;20101;-76
2021/08/27 03:54:33;;;;;;;34.25;23.23;;;19.20;91.80;;;;;;4993036;28;20105;-76
2021/08/27 03:57:04;;;;;;;36.15;24.77;;;19.20;91.80;;;;;;4993125;28;20101;-76
2021/08/27 03:59:30;;;;;;;31.00;22.42;;;19.30;91.80;;;;;;4992929;28;20033;-76
2021/08/27 04:01:58;;;;;;;30.42;22.73;;;19.30;91.70;;;;;;4993223;28;20380;-77
2021/08/27 04:04:24;;;;;;;32.40;22.70;;;19.30;91.70;;;;;;4992525;28;20042;-77
2021/08/27 04:06:56;;;;;;;31.90;23.15;;;19.30;91.70;;;;;;4992714;28;20110;-77
2021/08/27 04:09:22;;;;;;;44.10;34.25;;;19.30;91.60;;;;;;4992884;28;20026;-77
2021/08/27 04:11:49;;;;;;;28.10;21.55;;;19.30;91.70;;;;;;4992220;28;20081;-77
2021/08/27 04:14:15;;;;;;;26.52;20.52;;;19.40;91.60;;;;;;4992445;28;20030;-77
2021/08/27 04:16:42;;;;;;;32.95;21.63;;;19.40;91.50;;;;;;4991979;28;20037;-77
2021/08/27 04:19:08;;;;;;;27.67;21.75;;;19.50;91.40;;;;;;4992191;28;20018;-77
2021/08/27 04:21:34;;;;;;;27.30;21.92;;;19.50;91.30;;;;;;4992201;28;20049;-76
2021/08/27 04:24:00;;;;;;;26.08;21.25;;;19.60;91.30;;;;;;4992484;28;20030;-76
2021/08/27 04:26:25;;;;;;;22.02;19.02;;;19.60;91.30;;;;;;4992313;28;20049;-77
2021/08/27 04:28:51;;;;;;;24.30;20.05;;;19.70;91.00;;;;;;4992259;28;20476;-77
2021/08/27 04:31:17;;;;;;;25.08;19.20;;;19.80;90.80;;;;;;4992146;28;20456;-74
2021/08/27 04:33:43;;;;;;;23.13;19.38;;;19.90;90.50;;;;;;4992334;28;20033;-74
2021/08/27 04:36:08;;;;;;;25.20;20.10;;;20.00;90.30;;;;;;4992230;28;20018;-74
2021/08/27 04:38:34;;;;;;;23.00;20.00;;;20.00;90.00;;;;;;4992067;28;20030;-74
2021/08/27 04:41:00;;;;;;;23.02;20.50;;;20.00;89.60;;;;;;4992136;28;20065;-74
2021/08/27 04:43:25;;;;;;;29.73;22.45;;;20.00;89.50;;;;;;4991949;28;20124;-74
2021/08/27 04:45:51;;;;;;;27.02;21.73;;;20.00;89.30;;;;;;4991677;28;20034;-74
2021/08/27 04:48:17;;;;;;;28.52;21.35;;;20.00;89.30;;;;;;4974263;28;20049;-74
2021/08/27 04:50:42;;;;;;;28.45;22.35;;;20.00;89.20;;;;;;4992167;28;20030;-74
2021/08/27 04:53:08;;;;;;;35.35;23.48;;;20.00;89.20;;;;;;4991492;28;20093;-74
2021/08/27 04:55:34;;;;;;;31.83;23.33;;;19.90;89.10;;;;;;4992011;28;20453;-74
2021/08/27 04:57:59;;;;;;;31.92;23.92;;;19.90;89.20;;;;;;4991730;28;20026;-75
2021/08/27 05:00:25;;;;;;;34.05;22.98;;;19.90;89.30;;;;;;4992024;28;20105;-75
2021/08/27 05:02:51;;;;;;;32.85;24.00;;;19.80;89.40;;;;;;4991791;28;20026;-74
2021/08/27 05:05:16;;;;;;;34.72;23.92;;;19.80;89.50;;;;;;4991962;28;20052;-74
2021/08/27 05:07:42;;;;;;;37.03;24.70;;;19.80;89.50;;;;;;4991820;28;20487;-74
2021/08/27 05:10:08;;;;;;;32.80;24.77;;;19.80;89.50;;;;;;4991961;28;20081;-75
2021/08/27 05:12:35;;;;;;;36.20;25.38;;;19.80;89.30;;;;;;4992106;28;20070;-74
2021/08/27 05:15:01;;;;;;;34.85;26.13;;;19.70;89.00;;;;;;4992361;28;20060;-74
2021/08/27 05:17:27;;;;;;;37.15;27.88;;;19.70;89.10;;;;;;4995489;28;20015;-75
2021/08/27 05:19:53;;;;;;;39.55;27.00;;;19.70;89.40;;;;;;4995364;28;20097;-76
2021/08/27 05:22:19;;;;;;;38.40;26.25;;;19.70;89.50;;;;;;4995499;28;20101;-74
2021/08/27 05:24:45;;;;;;;39.40;27.42;;;19.70;89.50;;;;;;4995287;28;20057;-74
2021/08/27 05:27:10;;;;;;;42.75;28.70;;;19.70;89.50;;;;;;4995529;28;20034;-74
2021/08/27 05:29:36;;;;;;;52.33;33.35;;;19.70;89.40;;;;;;4995124;28;20026;-76
2021/08/27 05:32:03;;;;;;;43.92;30.08;;;19.70;89.50;;;;;;4995053;28;20038;-75
2021/08/27 05:34:29;;;;;;;47.55;30.67;;;19.70;89.40;;;;;;4994981;28;20053;-75
2021/08/27 05:36:55;;;;;;;49.42;30.17;;;19.70;89.30;;;;;;4994864;28;20054;-74
2021/08/27 05:39:20;;;;;;;43.40;30.33;;;19.80;89.30;;;;;;4995279;28;20022;-75
2021/08/27 05:41:46;;;;;;;44.30;29.48;;;19.70;88.90;;;;;;4977607;28;20500;-75
2021/08/27 05:44:12;;;;;;;45.92;29.90;;;19.80;88.70;;;;;;4995173;28;20030;-75
2021/08/27 05:46:38;;;;;;;45.72;28.67;;;19.80;88.70;;;;;;4994850;28;20416;-75
2021/08/27 05:49:03;;;;;;;45.33;30.20;;;19.80;88.60;;;;;;4994891;28;20030;-75
2021/08/27 05:51:29;;;;;;;55.83;34.92;;;19.80;88.50;;;;;;4994991;28;20388;-75
2021/08/27 05:53:55;;;;;;;49.92;30.98;;;19.90;88.30;;;;;;4995299;28;20054;-75
2021/08/27 05:56:21;;;;;;;47.78;30.40;;;19.90;88.20;;;;;;4994724;28;20032;-75
2021/08/27 05:58:48;;;;;;;46.13;29.30;;;20.00;88.30;;;;;;4994644;28;20027;-75
2021/08/27 06:01:14;;;;;;;51.95;30.35;;;20.00;87.90;;;;;;4994586;28;20901;-76
2021/08/27 06:03:40;;;;;;;50.72;31.00;;;20.10;87.70;;;;;;4994766;28;20698;-77
2021/08/27 06:06:06;;;;;;;42.35;29.30;;;20.20;87.50;;;;;;4994972;28;20034;-77
2021/08/27 06:08:34;;;;;;;43.15;29.42;;;20.20;87.20;;;;;;4994492;28;20050;-78
2021/08/27 06:11:00;;;;;;;43.40;29.40;;;20.20;86.80;;;;;;4994817;28;20025;-78
2021/08/27 06:13:26;;;;;;;48.50;31.83;;;20.20;86.50;;;;;;4994798;28;20026;-78
2021/08/27 06:15:51;;;;;;;44.83;30.20;;;20.20;86.30;;;;;;4994654;28;20101;-78
2021/08/27 06:18:17;;;;;;;47.85;30.08;;;20.20;86.20;;;;;;4994848;28;20050;-78
2021/08/27 06:20:43;;;;;;;50.42;31.38;;;20.20;86.10;;;;;;4994807;28;20077;-78
2021/08/27 06:23:09;;;;;;;43.85;30.67;;;20.30;86.10;;;;;;4994272;28;20029;-79
2021/08/27 06:25:35;;;;;;;48.00;32.10;;;20.30;85.90;;;;;;4994396;28;20073;-79
2021/08/27 06:28:01;;;;;;;56.33;31.00;;;20.30;85.80;;;;;;4994326;28;20019;-79
2021/08/27 06:30:27;;;;;;;48.33;31.55;;;20.40;85.90;;;;;;4994561;28;20057;-79
2021/08/27 06:32:53;;;;;;;52.97;31.73;;;20.40;85.90;;;;;;4994495;28;20050;-78
2021/08/27 06:35:19;;;;;;;47.80;31.85;;;20.40;85.80;;;;;;4994581;28;20081;-80
2021/08/27 06:40:29;;;;;;;45.15;29.95;;;20.50;85.20;;;;;;5004081;28;20056;-80
2021/08/27 06:42:55;;;;;;;45.75;29.60;;;20.50;85.00;;;;;;5003433;28;20054;-81
2021/08/27 06:45:21;;;;;;;48.00;30.10;;;20.50;84.60;;;;;;5001935;28;20097;-82
2021/08/27 06:47:47;;;;;;;47.67;31.13;;;20.50;84.50;;;;;;5002616;28;20105;-80
2021/08/27 06:50:13;;;;;;;52.17;30.52;;;20.40;84.60;;;;;;5000904;28;20032;-79
2021/08/27 06:52:39;;;;;;;51.03;32.83;;;20.40;84.70;;;;;;5008889;28;20135;-80
2021/08/27 06:55:05;;;;;;;46.33;31.08;;;20.40;85.10;;;;;;4994875;28;20030;-80
2021/08/27 06:57:30;;;;;;;53.17;35.33;;;20.40;85.20;;;;;;5000266;28;20392;-80
2021/08/27 06:59:56;;;;;;;47.78;30.35;;;20.40;85.20;;;;;;4997804;28;20022;-79
2021/08/27 07:02:22;;;;;;;44.30;30.30;;;20.50;84.90;;;;;;5006829;28;20069;-81
2021/08/27 07:04:47;;;;;;;46.45;31.45;;;20.40;84.60;;;;;;5013263;28;20387;-81
2021/08/27 07:07:13;;;;;;;51.05;31.25;;;20.40;84.70;;;;;;5013419;28;20025;-79
2021/08/27 07:09:39;;;;;;;46.03;31.52;;;20.50;84.60;;;;;;5013477;28;20029;-80
2021/08/27 07:12:06;;;;;;;46.63;32.25;;;20.50;84.50;;;;;;5013063;28;20483;-80
2021/08/27 07:14:32;;;;;;;50.75;33.42;;;20.40;84.30;;;;;;5013164;28;20030;-80
2021/08/27 07:16:59;;;;;;;46.72;32.35;;;20.40;84.20;;;;;;5012828;28;20021;-82
2021/08/27 07:19:25;;;;;;;46.83;33.20;;;20.40;84.30;;;;;;5013245;28;20030;-80
2021/08/27 07:21:51;;;;;;;46.65;32.05;;;20.40;84.50;;;;;;5013326;28;20545;-77
2021/08/27 07:24:17;;;;;;;45.55;32.83;;;20.40;84.70;;;;;;5013378;28;20480;-81
2021/08/27 07:26:42;;;;;;;46.08;32.80;;;20.40;84.80;;;;;;5013214;28;20034;-82
2021/08/27 07:29:08;;;;;;;53.03;33.45;;;20.50;84.70;;;;;;5013354;28;20480;-79
2021/08/27 07:31:34;;;;;;;48.42;34.55;;;20.50;84.80;;;;;;5012816;28;20204;-80
2021/08/27 07:33:59;;;;;;;45.35;32.72;;;20.50;84.80;;;;;;5013052;28;20022;-80
2021/08/27 07:36:25;;;;;;;43.80;32.53;;;20.60;84.70;;;;;;5013427;28;20823;-80
2021/08/27 07:38:51;;;;;;;48.67;35.60;;;20.70;84.50;;;;;;5013028;28;20018;-80
2021/08/27 07:41:17;;;;;;;46.67;31.65;;;20.80;84.40;;;;;;5012391;28;20058;-82
2021/08/27 07:43:42;;;;;;;43.47;32.13;;;20.90;83.90;;;;;;5012706;28;20417;-80
2021/08/27 07:46:08;;;;;;;42.95;32.05;;;21.00;83.60;;;;;;4994988;28;20029;-76
2021/08/27 07:48:34;;;;;;;41.28;30.52;;;21.20;83.20;;;;;;5012859;28;20471;-82
2021/08/27 07:50:59;;;;;;;44.67;31.17;;;21.30;82.80;;;;;;5010939;28;20030;-77
2021/08/27 07:53:25;;;;;;;43.38;30.25;;;21.40;82.40;;;;;;5004455;28;20037;-75
2021/08/27 07:55:51;;;;;;;43.78;28.63;;;21.50;81.80;;;;;;5003649;28;20100;-78
2021/08/27 07:58:18;;;;;;;44.13;30.48;;;21.60;81.30;;;;;;5011539;28;20459;-78
2021/08/27 08:00:44;;;;;;;38.97;30.10;;;21.70;80.90;;;;;;5012546;28;20468;-79
2021/08/27 08:03:10;;;;;;;41.85;31.38;;;21.80;80.60;;;;;;5012294;28;20480;-79
2021/08/27 08:05:36;;;;;;;49.97;34.05;;;21.80;80.20;;;;;;5012372;28;20076;-79
2021/08/27 08:08:02;;;;;;;40.17;30.48;;;21.80;80.00;;;;;;5012353;28;20162;-77
2021/08/27 08:10:27;;;;;;;40.13;29.67;;;21.80;79.80;;;;;;5012146;28;20468;-79
2021/08/27 08:12:53;;;;;;;41.35;29.73;;;21.80;79.80;;;;;;5012180;28;20030;-79
2021/08/27 08:15:21;;;;;;;39.90;29.55;;;21.90;79.70;;;;;;5005201;28;20026;-78
2021/08/27 08:17:47;;;;;;;43.58;29.92;;;21.90;79.50;;;;;;5006322;28;20094;-78
2021/08/27 08:20:13;;;;;;;39.00;29.40;;;22.00;79.40;;;;;;4994243;28;20092;-78
2021/08/27 08:22:38;;;;;;;40.47;28.50;;;22.10;79.10;;;;;;5011958;28;20058;-80
2021/08/27 08:25:05;;;;;;;37.08;29.17;;;22.20;79.40;;;;;;5007201;28;20091;-80
2021/08/27 08:27:33;;;;;;;40.90;29.95;;;22.20;78.50;;;;;;5000965;28;20112;-78
2021/08/27 08:30:00;;;;;;;43.08;30.15;;;22.20;78.10;;;;;;4992255;28;20164;-78
2021/08/27 08:32:26;;;;;;;42.92;30.73;;;22.20;78.10;;;;;;4992209;28;20026;-78
2021/08/27 08:34:52;;;;;;;38.15;28.77;;;22.20;78.10;;;;;;4991252;28;20029;-78
2021/08/27 08:37:17;;;;;;;40.83;28.35;;;22.10;77.90;;;;;;4997442;28;20044;-80
2021/08/27 08:39:43;;;;;;;39.88;29.50;;;22.10;77.90;;;;;;5009812;28;20348;-78
2021/08/27 08:42:09;;;;;;;49.28;32.50;;;22.20;78.20;;;;;;5000699;28;20046;-76
2021/08/27 08:44:35;;;;;;;37.83;27.70;;;22.20;78.20;;;;;;5010027;28;20041;-77
2021/08/27 08:47:03;;;;;;;36.58;28.10;;;22.30;78.00;;;;;;5011731;28;20026;-80
2021/08/27 08:49:31;;;;;;;36.97;27.25;;;22.30;78.40;;;;;;5011477;28;20033;-80
2021/08/27 08:51:58;;;;;;;38.90;27.02;;;22.20;77.60;;;;;;5011695;28;20056;-79
2021/08/27 08:54:25;;;;;;;31.73;27.02;;;22.20;77.50;;;;;;5011522;28;20026;-78
2021/08/27 08:56:51;;;;;;;38.45;27.35;;;22.20;77.60;;;;;;4993584;28;20412;-78
2021/08/27 08:59:17;;;;;;;37.65;27.27;;;22.20;77.80;;;;;;5011255;28;20026;-78
2021/08/27 09:01:42;;;;;;;40.08;28.05;;;22.40;78.00;;;;;;4993511;28;20038;-79
2021/08/27 09:04:08;;;;;;;37.47;24.88;;;22.70;77.50;;;;;;5011452;28;20029;-79
2021/08/27 09:06:35;;;;;;;31.92;24.17;;;23.00;76.60;;;;;;5011330;28;20333;-79
2021/08/27 09:09:01;;;;;;;36.72;24.15;;;23.20;75.70;;;;;;5011156;28;20025;-80
2021/08/27 09:11:28;;;;;;;31.38;24.40;;;23.40;74.90;;;;;;5011061;28;20040;-80
2021/08/27 09:13:56;;;;;;;29.60;23.90;;;23.50;74.30;;;;;;5011262;28;20021;-79
2021/08/27 09:16:27;;;;;;;26.45;22.63;;;23.60;73.50;;;;;;5011242;28;20021;-79
2021/08/27 09:18:54;;;;;;;31.52;22.25;;;23.60;73.00;;;;;;5010969;28;20022;-83
2021/08/27 09:21:48;;;;;;;29.95;22.65;;;23.50;72.90;;;;;;5011261;28;20026;-82
2021/08/27 09:24:23;;;;;;;29.40;23.48;;;23.50;72.70;;;;;;5009665;28;20030;-78
2021/08/27 09:26:55;;;;;;;29.15;24.50;;;23.40;72.90;;;;;;5001668;28;20022;-79
2021/08/27 09:29:44;;;;;;;27.08;23.00;;;23.30;73.00;;;;;;5000466;28;20084;-79
2021/08/27 09:32:21;;;;;;;30.05;23.08;;;23.20;73.00;;;;;;5010988;28;20022;-78
2021/08/27 09:34:47;;;;;;;39.28;30.33;;;23.20;73.20;;;;;;5011197;28;20026;-78
2021/08/27 09:37:13;;;;;;;29.10;22.40;;;23.10;73.50;;;;;;5012037;28;20030;-78
2021/08/27 09:39:39;;;;;;;29.10;22.35;;;23.10;73.60;;;;;;5012938;28;20026;-80
2021/08/27 09:42:05;;;;;;;28.02;23.15;;;23.10;73.70;;;;;;5015023;28;20058;-79
2021/08/27 09:44:31;;;;;;;29.35;23.13;;;23.30;73.60;;;;;;5011131;28;20762;-81
2021/08/27 09:47:00;;;;;;;26.30;21.65;;;23.40;73.40;;;;;;5010818;28;20026;-82
2021/08/27 09:49:32;;;;;;;24.92;21.17;;;23.60;73.10;;;;;;5011048;28;20081;-83
2021/08/27 09:51:59;;;;;;;29.42;22.27;;;23.80;72.60;;;;;;5010779;28;20472;-80
2021/08/27 09:54:29;;;;;;;27.45;22.25;;;23.90;72.20;;;;;;5010560;28;20102;-79
2021/08/27 09:57:00;;;;;;;28.20;21.85;;;23.90;71.80;;;;;;5010902;28;20073;-78
2021/08/27 09:59:40;;;;;;;27.85;21.38;;;24.00;70.90;;;;;;5011145;28;20464;-83
2021/08/27 10:02:08;;;;;;;26.05;20.33;;;23.90;70.70;;;;;;5012898;28;20451;-81
2021/08/27 10:04:35;;;;;;;20.77;18.58;;;24.10;70.70;;;;;;5014390;28;20044;-81
2021/08/27 10:07:02;;;;;;;23.05;20.55;;;24.30;70.00;;;;;;5015150;28;20026;-87
2021/08/27 10:09:47;;;;;;;28.33;20.42;;;24.40;69.70;;;;;;5015224;28;20030;-84
2021/08/27 10:12:13;;;;;;;23.08;19.88;;;24.50;69.30;;;;;;5005554;28;20030;-82
2021/08/27 10:14:39;;;;;;;22.33;19.70;;;24.60;69.00;;;;;;5003686;28;20499;-84
2021/08/27 10:17:05;;;;;;;28.70;25.95;;;24.60;68.60;;;;;;5004985;28;20125;-85
2021/08/27 10:19:32;;;;;;;21.55;18.48;;;24.60;68.30;;;;;;5004955;28;20053;-84
2021/08/27 10:21:59;;;;;;;23.10;19.17;;;24.60;68.10;;;;;;4989137;28;20018;-87
2021/08/27 10:24:25;;;;;;;22.73;18.58;;;24.60;68.00;;;;;;4989781;28;20101;-86
2021/08/27 10:26:51;;;;;;;22.52;19.90;;;24.70;68.10;;;;;;4992059;28;20049;-87
2021/08/27 10:29:18;;;;;;;23.60;18.65;;;24.80;67.80;;;;;;5004254;28;20022;-85
2021/08/27 10:31:50;;;;;;;23.10;18.85;;;24.90;67.60;;;;;;5004724;28;20117;-87
2021/08/27 10:34:36;;;;;;;18.52;16.38;;;25.00;67.60;;;;;;4986954;28;20022;-86
2021/08/27 10:37:02;;;;;;;21.65;17.10;;;25.20;67.30;;;;;;5005681;28;20443;-83
2021/08/27 10:39:39;;;;;;;21.45;15.55;;;25.40;66.80;;;;;;5004119;28;20030;-85
2021/08/27 10:42:06;;;;;;;15.75;14.15;;;25.60;65.90;;;;;;4983843;28;20393;-83
2021/08/27 10:44:52;;;;;;;17.35;14.85;;;25.80;65.20;;;;;;5004816;28;20079;-82
2021/08/27 10:47:19;;;;;;;19.75;15.68;;;26.00;64.60;;;;;;5005272;28;20029;-82
2021/08/27 10:49:45;;;;;;;17.55;15.35;;;26.20;64.40;;;;;;5002211;28;20072;-81
2021/08/27 10:52:29;;;;;;;19.67;15.65;;;26.20;64.10;;;;;;5003224;28;20038;-84
2021/08/27 10:55:12;;;;;;;18.50;15.48;;;26.20;63.90;;;;;;5003738;28;20051;-82
2021/08/27 10:57:50;;;;;;;17.65;15.93;;;26.20;64.10;;;;;;5003782;28;20101;-82
2021/08/27 11:00:33;;;;;;;20.15;17.60;;;26.20;63.90;;;;;;4990326;28;20030;-82
2021/08/27 11:02:59;;;;;;;19.90;16.65;;;26.10;63.70;;;;;;4992040;28;20420;-82
2021/08/27 11:05:36;;;;;;;19.50;17.23;;;26.20;64.10;;;;;;4984977;28;20038;-87
2021/08/27 11:08:08;;;;;;;18.10;16.20;;;26.20;64.10;;;;;;5007404;28;20061;-83
2021/08/27 11:10:40;;;;;;;20.33;15.88;;;26.40;63.70;;;;;;5006239;28;20041;-81
2021/08/27 11:13:12;;;;;;;17.50;15.80;;;26.50;63.10;;;;;;5003260;28;20025;-81
2021/08/27 11:15:39;;;;;;;18.00;15.95;;;26.60;62.60;;;;;;5003830;28;20026;-81
2021/08/27 11:18:16;;;;;;;17.77;15.98;;;26.70;62.30;;;;;;5002244;28;20026;-83
2021/08/27 11:20:43;;;;;;;18.85;15.25;;;26.80;61.60;;;;;;4984076;28;20027;-84
2021/08/27 11:23:10;;;;;;;17.60;15.85;;;26.90;61.30;;;;;;5004161;28;20030;-81
2021/08/27 11:25:57;;;;;;;17.42;15.32;;;27.10;60.90;;;;;;5003931;28;20027;-82
2021/08/27 11:28:27;;;;;;;18.73;16.75;;;27.10;60.30;;;;;;5004647;28;20014;-83
2021/08/27 11:31:08;;;;;;;18.30;16.40;;;27.20;60.10;;;;;;5003122;28;20038;-81
2021/08/27 11:33:47;;;;;;;21.25;18.63;;;27.40;60.10;;;;;;5002340;28;20117;-80
2021/08/27 11:36:15;;;;;;;17.10;15.40;;;27.60;60.00;;;;;;5002969;28;20026;-83
2021/08/27 11:38:41;;;;;;;18.67;15.77;;;27.80;59.40;;;;;;4989634;28;20413;-89
2021/08/27 11:41:08;;;;;;;18.10;16.13;;;27.90;59.50;;;;;;4985741;28;20046;-84
2021/08/27 11:43:44;;;;;;;23.90;21.40;;;27.90;58.90;;;;;;5007951;28;20061;-82
2021/08/27 11:46:19;;;;;;;20.67;18.13;;;27.80;58.50;;;;;;5003594;28;20028;-81
2021/08/27 11:48:52;;;;;;;19.33;14.95;;;27.80;58.00;;;;;;4986241;28;20399;-81
2021/08/27 11:51:36;;;;;;;15.98;14.38;;;27.70;57.90;;;;;;4995487;28;20092;-83
2021/08/27 11:54:18;;;;;;;16.25;14.68;;;27.60;57.50;;;;;;5008228;28;20105;-84
2021/08/27 11:56:56;;;;;;;18.30;16.27;;;27.50;57.70;;;;;;5007266;28;20087;-83
2021/08/27 11:59:25;;;;;;;18.05;16.30;;;27.40;57.80;;;;;;5005694;28;20018;-85
2021/08/27 12:01:52;;;;;;;23.42;20.17;;;27.10;58.20;;;;;;5000603;28;20026;-83
2021/08/27 12:04:34;;;;;;;19.30;17.35;;;27.00;58.50;;;;;;5003920;28;20465;-83
2021/08/27 12:07:11;;;;;;;16.95;14.98;;;26.90;59.30;;;;;;5004209;28;20404;-84
2021/08/27 12:09:37;;;;;;;15.90;14.40;;;26.90;58.50;;;;;;5001718;28;20735;-84
2021/08/27 12:12:04;;;;;;;16.60;14.98;;;26.80;58.60;;;;;;5003629;28;20026;-84
2021/08/27 12:14:51;;;;;;;16.25;14.65;;;26.70;58.70;;;;;;5003118;28;20022;-83
2021/08/27 12:17:18;;;;;;;16.65;14.40;;;26.70;58.50;;;;;;5003210;28;20035;-83
2021/08/27 12:19:44;;;;;;;16.90;15.20;;;26.60;58.10;;;;;;5001847;28;20045;-83
2021/08/27 12:22:12;;;;;;;16.25;14.45;;;26.50;58.40;;;;;;5002859;28;20469;-82
2021/08/27 12:24:39;;;;;;;16.40;14.77;;;26.50;59.00;;;;;;5000161;28;20025;-85
2021/08/27 12:27:05;;;;;;;17.10;15.50;;;26.40;59.10;;;;;;5004370;28;20113;-83
2021/08/27 12:29:31;;;;;;;16.23;14.32;;;26.30;59.30;;;;;;5001913;28;20037;-80
2021/08/27 12:31:57;;;;;;;19.20;15.63;;;26.30;59.20;;;;;;5010946;28;20026;-81
2021/08/27 12:34:23;;;;;;;17.17;15.48;;;26.20;59.50;;;;;;5012345;28;20033;-82
2021/08/27 12:36:49;;;;;;;17.98;16.27;;;26.20;59.70;;;;;;5012254;28;20105;-81